Time;durP1;ratioP1;P1;durP2;ratioP2;P2;SDS_P1;SDS_P2;PMS_P1;PMS_P2;Temp;Humidity;BMP_temperature;BMP_pressure;BME280_temperature;BME280_humidity;BME280_pressure;Samples;Min_cycle;Max_cycle;Signal;HPM_P1;HPM_P2
2022/09/21 00:00:52;;;;;;;;;;;9.70;99.90;;;;;;5094635;28;20116;-84
2022/09/21 00:03:18;;;;;;;1.15;0.50;;;9.70;99.90;;;;;;5081528;28;19904;-83
2022/09/21 00:05:43;;;;;;;;;;;9.70;99.90;;;;;;5070093;28;20033;-84
2022/09/21 00:08:11;;;;;;;1.30;0.65;;;9.70;99.90;;;;;;5069891;28;19912;-83
2022/09/21 00:10:37;;;;;;;0.82;0.60;;;9.70;99.90;;;;;;5085748;28;20032;-84
2022/09/21 00:13:03;;;;;;;;;;;9.70;99.90;;;;;;5070088;28;20036;-85
2022/09/21 00:15:30;;;;;;;1.67;0.60;;;9.70;99.90;;;;;;5069819;28;20435;-84
2022/09/21 00:17:58;;;;;;;1.75;0.90;;;9.70;99.90;;;;;;5068911;28;20043;-83
2022/09/21 00:20:24;;;;;;;1.98;0.70;;;9.70;99.90;;;;;;5069496;28;20020;-84
2022/09/21 00:22:51;;;;;;;1.45;0.60;;;9.80;99.90;;;;;;5067311;28;20162;-85
2022/09/21 00:25:18;;;;;;;0.75;0.40;;;9.80;99.90;;;;;;5066269;28;20021;-84
2022/09/21 00:27:47;;;;;;;2.10;0.80;;;9.70;99.90;;;;;;5068896;28;20405;-83
2022/09/21 00:30:14;;;;;;;3.63;0.93;;;9.80;99.90;;;;;;5070431;28;20254;-84
2022/09/21 00:32:39;;;;;;;4.40;0.80;;;9.80;99.90;;;;;;5068998;28;20515;-84
2022/09/21 00:35:08;;;;;;;;;;;9.80;99.90;;;;;;5069017;28;20025;-84
2022/09/21 00:37:34;;;;;;;2.35;1.10;;;9.80;99.90;;;;;;5068928;28;19904;-84
2022/09/21 00:39:59;;;;;;;;;;;9.80;99.90;;;;;;5070929;28;20021;-84
2022/09/21 00:42:28;;;;;;;4.18;0.80;;;9.80;99.90;;;;;;5070205;28;19908;-85
2022/09/21 00:44:54;;;;;;;1.50;0.80;;;9.80;99.90;;;;;;5069059;28;20086;-84
2022/09/21 00:47:28;;;;;;;;;;;9.80;99.90;;;;;;5069079;28;20386;-85
2022/09/21 00:49:56;;;;;;;3.70;1.00;;;9.80;99.90;;;;;;5069826;28;19911;-84
2022/09/21 00:52:23;;;;;;;1.48;0.80;;;9.80;99.90;;;;;;5069668;28;20030;-85
2022/09/21 00:54:56;;;;;;;1.15;0.60;;;9.80;99.90;;;;;;5068757;28;20082;-83
2022/09/21 00:57:26;;;;;;;6.82;0.90;;;9.80;99.90;;;;;;5068770;28;20048;-84
2022/09/21 00:59:56;;;;;;;1.50;0.70;;;9.80;99.90;;;;;;5069881;28;20051;-84
2022/09/21 01:02:22;;;;;;;4.18;0.80;;;9.80;99.90;;;;;;5068538;28;20054;-85
2022/09/21 01:04:52;;;;;;;;;;;9.80;99.90;;;;;;5070170;28;20485;-84
2022/09/21 01:07:22;;;;;;;1.23;0.60;;;9.70;99.90;;;;;;5068198;28;19916;-84
2022/09/21 01:09:52;;;;;;;4.40;0.88;;;9.70;99.90;;;;;;5068417;28;20029;-84
2022/09/21 01:12:42;;;;;;;1.98;0.80;;;9.60;99.90;;;;;;5068647;28;20025;-84
2022/09/21 01:15:19;;;;;;;1.33;0.63;;;9.50;99.90;;;;;;5068763;28;20081;-84
2022/09/21 01:18:24;;;;;;;1.63;0.60;;;9.40;99.90;;;;;;5069524;28;20505;-84
2022/09/21 01:21:19;;;;;;;1.13;0.60;;;9.30;99.90;;;;;;5064225;28;20024;-84
2022/09/21 01:23:47;;;;;;;1.52;0.60;;;9.20;99.90;;;;;;5068574;28;20457;-84
2022/09/21 01:26:45;;;;;;;2.95;0.75;;;9.10;99.90;;;;;;5069375;28;20024;-83
2022/09/21 01:29:33;;;;;;;2.53;0.82;;;9.00;99.90;;;;;;5068485;28;20068;-84
2022/09/21 01:32:19;;;;;;;3.13;0.70;;;9.00;99.90;;;;;;5066266;28;20074;-84
2022/09/21 01:35:23;;;;;;;2.70;0.75;;;8.90;99.90;;;;;;5069236;28;20364;-84
2022/09/21 01:37:57;;;;;;;1.00;0.50;;;8.80;99.90;;;;;;4975516;28;20653;-85
2022/09/21 01:40:35;;;;;;;2.75;0.40;;;8.80;99.90;;;;;;5057514;28;20036;-85
2022/09/21 01:43:03;;;;;;;0.95;0.40;;;8.70;99.90;;;;;;5071694;28;20135;-85
2022/09/21 01:45:33;;;;;;;0.77;0.50;;;8.60;99.90;;;;;;5071900;28;20042;-84
2022/09/21 01:48:03;;;;;;;0.77;0.40;;;8.60;99.90;;;;;;5072747;28;20044;-85
2022/09/21 01:50:35;;;;;;;3.75;0.60;;;8.50;99.90;;;;;;5071698;28;20021;-84
2022/09/21 01:53:10;;;;;;;0.90;0.40;;;8.50;99.90;;;;;;5071622;28;20025;-85
2022/09/21 01:55:42;;;;;;;0.80;0.50;;;8.40;99.90;;;;;;5071628;28;20028;-85
2022/09/21 01:58:27;;;;;;;3.17;0.70;;;8.40;99.90;;;;;;5073693;28;20485;-85
2022/09/21 02:00:56;;;;;;;1.92;0.55;;;8.30;99.90;;;;;;5091438;28;20025;-85
2022/09/21 02:03:29;;;;;;;2.35;0.60;;;8.30;99.90;;;;;;5081110;28;20044;-86
2022/09/21 02:05:57;;;;;;;1.13;0.60;;;8.20;99.90;;;;;;5071494;28;20033;-84
2022/09/21 02:08:25;;;;;;;1.83;0.57;;;8.20;99.90;;;;;;5071360;28;20049;-84
2022/09/21 02:10:52;;;;;;;1.83;0.60;;;8.10;99.90;;;;;;5071385;28;20363;-86
2022/09/21 02:13:24;;;;;;;1.23;0.60;;;8.10;99.90;;;;;;5071503;28;20202;-86
2022/09/21 02:16:07;;;;;;;1.33;0.50;;;8.10;99.90;;;;;;5071604;28;20100;-86
2022/09/21 02:19:06;;;;;;;1.20;0.50;;;8.00;99.90;;;;;;5071459;28;20051;-85
2022/09/21 02:21:44;;;;;;;1.60;0.70;;;8.00;99.90;;;;;;5071611;28;20550;-84
2022/09/21 02:24:21;;;;;;;2.05;0.98;;;7.90;99.90;;;;;;5072106;28;20044;-85
2022/09/21 02:27:01;;;;;;;2.83;0.80;;;7.80;99.90;;;;;;5070703;28;20040;-85
2022/09/21 02:29:49;;;;;;;4.40;0.90;;;7.80;99.90;;;;;;5071332;28;20063;-85
2022/09/21 02:32:29;;;;;;;2.85;1.27;;;7.80;99.90;;;;;;5070572;28;20571;-85
2022/09/21 02:35:16;;;;;;;1.55;0.90;;;7.70;99.90;;;;;;5071883;28;20115;-86
2022/09/21 02:37:48;;;;;;;1.75;0.80;;;7.70;99.90;;;;;;5070721;28;20032;-86
2022/09/21 02:40:43;;;;;;;4.20;0.90;;;7.70;99.90;;;;;;5071124;28;20027;-86
2022/09/21 02:43:21;;;;;;;1.63;0.90;;;7.70;99.90;;;;;;5020576;28;20404;-86
2022/09/21 02:45:54;;;;;;;2.85;1.17;;;7.70;99.90;;;;;;5070790;28;20025;-85
2022/09/21 02:48:30;;;;;;;2.17;1.00;;;7.70;99.90;;;;;;5071749;28;20040;-85
2022/09/21 02:51:04;;;;;;;2.63;0.80;;;7.70;99.90;;;;;;5070582;28;20115;-85
2022/09/21 02:53:35;;;;;;;1.10;0.60;;;7.70;99.90;;;;;;5068986;28;20463;-85
2022/09/21 02:56:05;;;;;;;2.65;0.57;;;7.70;99.90;;;;;;5069814;28;20085;-85
2022/09/21 02:58:38;;;;;;;1.98;0.70;;;7.70;99.90;;;;;;5074773;28;20211;-86
2022/09/21 03:01:09;;;;;;;1.52;0.80;;;7.70;99.90;;;;;;5073458;28;20024;-85
2022/09/21 03:03:35;;;;;;;1.52;0.85;;;7.70;99.90;;;;;;5068795;28;20066;-86
2022/09/21 03:06:01;;;;;;;;;;;7.80;99.90;;;;;;5071704;28;20112;-85
2022/09/21 03:08:27;;;;;;;1.75;0.68;;;7.80;99.90;;;;;;5070207;28;19923;-85
2022/09/21 03:10:52;;;;;;;;;;;7.90;99.90;;;;;;5070766;28;20676;-85
2022/09/21 03:13:18;;;;;;;3.65;0.60;;;7.90;99.90;;;;;;5070437;28;20432;-84
2022/09/21 03:15:44;;;;;;;;;;;7.90;99.90;;;;;;5070081;28;20043;-85
2022/09/21 03:18:10;;;;;;;1.38;0.88;;;7.90;99.90;;;;;;5071144;28;19904;-85
2022/09/21 03:20:38;;;;;;;1.95;0.88;;;7.90;99.90;;;;;;5070709;28;20070;-85
2022/09/21 03:23:05;;;;;;;1.30;0.63;;;7.80;99.90;;;;;;5070094;28;20401;-85
2022/09/21 03:25:31;;;;;;;2.80;1.10;;;7.80;99.90;;;;;;5070046;28;20489;-85
2022/09/21 03:27:57;;;;;;;2.22;0.90;;;7.80;99.90;;;;;;5049398;28;20378;-86
2022/09/21 03:30:24;;;;;;;;;;;7.80;99.90;;;;;;5049382;28;20029;-85
2022/09/21 03:32:51;;;;;;;4.20;1.07;;;7.80;99.90;;;;;;5049763;28;19914;-84
2022/09/21 03:35:22;;;;;;;3.83;1.33;;;7.80;99.90;;;;;;5049308;28;20271;-85
2022/09/21 03:37:48;;;;;;;1.67;0.80;;;7.80;99.90;;;;;;5049581;28;20053;-85
2022/09/21 03:40:15;;;;;;;6.72;0.80;;;7.80;99.90;;;;;;5051289;28;20025;-86
2022/09/21 03:42:41;;;;;;;5.18;0.70;;;7.90;99.90;;;;;;5048899;28;20025;-84
2022/09/21 03:45:07;;;;;;;;;;;7.80;99.90;;;;;;5049762;28;20079;-85
2022/09/21 03:47:33;;;;;;;5.32;0.60;;;7.90;99.90;;;;;;5050503;28;19913;-85
2022/09/21 03:49:58;;;;;;;;;;;8.00;99.90;;;;;;5050951;28;20179;-85
2022/09/21 03:52:24;;;;;;;1.48;0.70;;;8.00;99.90;;;;;;5068495;28;19985;-84
2022/09/21 03:54:49;;;;;;;;;;;8.00;99.90;;;;;;5051093;28;20775;-86
2022/09/21 03:57:15;;;;;;;2.88;0.95;;;8.00;99.90;;;;;;5048882;28;20388;-86
2022/09/21 03:59:41;;;;;;;;;;;8.00;99.90;;;;;;5049651;28;20033;-85
2022/09/21 04:02:07;;;;;;;2.67;1.40;;;8.10;99.90;;;;;;5050116;28;20381;-84
2022/09/21 04:04:33;;;;;;;1.98;1.00;;;8.00;99.90;;;;;;5048950;28;20756;-86
2022/09/21 04:06:58;;;;;;;;;;;8.00;99.90;;;;;;5049344;28;20053;-85
2022/09/21 04:09:24;;;;;;;2.78;1.00;;;8.10;99.90;;;;;;5050762;28;20380;-85
2022/09/21 04:11:51;;;;;;;;;;;8.10;99.90;;;;;;5049072;28;20485;-86
2022/09/21 04:14:16;;;;;;;5.57;4.15;;;8.20;99.90;;;;;;5048827;28;19931;-85
2022/09/21 04:16:42;;;;;;;;;;;8.20;99.90;;;;;;5049164;28;20553;-86
2022/09/21 04:19:07;;;;;;;7.10;5.20;;;8.20;99.90;;;;;;5048713;28;19908;-86
2022/09/21 04:21:33;;;;;;;;;;;8.20;99.90;;;;;;5049192;28;20039;-85
2022/09/21 04:24:00;;;;;;;7.38;4.80;;;8.30;99.90;;;;;;5067310;28;19905;-86
2022/09/21 04:26:28;;;;;;;9.77;3.67;;;8.30;99.90;;;;;;5068475;28;20025;-85
2022/09/21 04:28:55;;;;;;;4.13;3.03;;;8.40;99.90;;;;;;5067535;28;20037;-84
2022/09/21 04:31:21;;;;;;;;;;;8.40;99.90;;;;;;5055983;28;20021;-85
2022/09/21 04:33:48;;;;;;;5.13;2.65;;;8.40;99.90;;;;;;5049527;28;20602;-85
2022/09/21 04:36:14;;;;;;;2.60;1.70;;;8.50;99.90;;;;;;5047309;28;20092;-85
2022/09/21 04:38:40;;;;;;;3.65;1.70;;;8.60;99.90;;;;;;5048494;28;20036;-86
2022/09/21 04:41:06;;;;;;;;;;;8.50;99.90;;;;;;5049240;28;20025;-85
2022/09/21 04:43:32;;;;;;;1.65;0.82;;;8.60;99.90;;;;;;5048176;28;19904;-85
2022/09/21 04:45:57;;;;;;;1.30;0.80;;;8.60;99.90;;;;;;5050581;28;20037;-84
2022/09/21 04:48:23;;;;;;;;;;;8.60;99.90;;;;;;5049979;28;20039;-86
2022/09/21 04:50:49;;;;;;;3.22;1.02;;;8.60;99.90;;;;;;5056964;28;19951;-86
2022/09/21 04:53:16;;;;;;;3.90;1.50;;;8.70;99.90;;;;;;5068710;28;20029;-86
2022/09/21 04:55:41;;;;;;;8.88;2.17;;;8.70;99.90;;;;;;5068382;28;20036;-85
2022/09/21 04:58:07;;;;;;;;;;;8.80;99.90;;;;;;5066337;28;20132;-85
2022/09/21 05:00:32;;;;;;;2.22;1.27;;;8.80;99.90;;;;;;5048980;28;19908;-85
2022/09/21 05:02:58;;;;;;;;;;;8.90;99.90;;;;;;5048582;28;20704;-85
2022/09/21 05:05:23;;;;;;;2.45;1.15;;;8.90;99.90;;;;;;5047945;28;19905;-85
2022/09/21 05:07:49;;;;;;;;;;;9.00;99.90;;;;;;5048556;28;20055;-85
2022/09/21 05:10:15;;;;;;;3.38;1.92;;;9.00;99.90;;;;;;5047769;28;20143;-86
2022/09/21 05:12:42;;;;;;;;;;;9.00;99.90;;;;;;5049022;28;20379;-85
2022/09/21 05:15:10;;;;;;;6.07;2.17;;;9.00;99.90;;;;;;5049663;28;19908;-86
2022/09/21 05:17:36;;;;;;;3.75;1.75;;;9.10;99.90;;;;;;5048344;28;20030;-86
2022/09/21 05:20:01;;;;;;;;;;;9.20;99.90;;;;;;5049148;28;20114;-84
2022/09/21 05:22:27;;;;;;;10.63;4.93;;;9.30;99.90;;;;;;5047075;28;19916;-85
2022/09/21 05:24:52;;;;;;;;;;;9.30;99.90;;;;;;5048666;28;20033;-85
2022/09/21 05:27:18;;;;;;;157.57;99.93;;;9.30;99.90;;;;;;5060210;28;19919;-85
2022/09/21 05:29:44;;;;;;;;;;;9.30;99.90;;;;;;5068342;28;20089;-83
2022/09/21 05:32:36;;;;;;;29.70;17.67;;;9.50;99.90;;;;;;5068239;28;20380;-84
2022/09/21 05:35:23;;;;;;;19.65;10.80;;;9.50;99.90;;;;;;5075221;28;20063;-82
2022/09/21 05:38:04;;;;;;;11.90;6.55;;;9.70;99.90;;;;;;5044760;28;20028;-81
2022/09/21 05:40:30;;;;;;;21.00;5.78;;;9.70;99.90;;;;;;5046630;28;20401;-85
2022/09/21 05:42:56;;;;;;;12.18;5.40;;;9.90;99.90;;;;;;5048941;28;20032;-85
2022/09/21 05:45:22;;;;;;;;;;;10.00;99.90;;;;;;5048480;28;20025;-86
2022/09/21 05:48:07;;;;;;;11.85;5.10;;;10.10;99.90;;;;;;5049025;28;19923;-85
2022/09/21 05:50:33;;;;;;;24.08;17.77;;;10.20;99.90;;;;;;5052749;28;20028;-85
2022/09/21 05:53:09;;;;;;;36.42;26.63;;;10.20;99.90;;;;;;5057796;28;20116;-86
2022/09/21 05:55:34;;;;;;;21.40;16.88;;;10.20;99.90;;;;;;5050955;28;20029;-85
2022/09/21 05:58:14;;;;;;;;;;;10.30;99.90;;;;;;5049839;28;20177;-85
2022/09/21 06:00:55;;;;;;;12.82;8.63;;;10.30;99.90;;;;;;5068048;28;19904;-83
2022/09/21 06:03:31;;;;;;;11.85;4.93;;;10.30;99.90;;;;;;5058553;28;20413;-83
2022/09/21 06:05:58;;;;;;;6.00;3.22;;;10.30;99.90;;;;;;5047467;28;20033;-84
2022/09/21 06:08:24;;;;;;;13.63;3.28;;;10.30;99.90;;;;;;5045807;28;20045;-84
2022/09/21 06:10:50;;;;;;;7.57;3.70;;;10.40;99.90;;;;;;5047167;28;20036;-85
2022/09/21 06:13:16;;;;;;;9.57;4.13;;;10.40;99.90;;;;;;5049400;28;20030;-86
2022/09/21 06:15:41;;;;;;;;;;;10.60;99.90;;;;;;5048632;28;20037;-85
2022/09/21 06:18:08;;;;;;;13.65;4.85;;;10.60;99.90;;;;;;5048212;28;20265;-86
2022/09/21 06:20:34;;;;;;;19.25;10.93;;;10.60;99.90;;;;;;5050937;28;20032;-83
2022/09/21 06:23:05;;;;;;;21.45;12.95;;;10.60;99.90;;;;;;5051960;28;20025;-86
2022/09/21 06:25:31;;;;;;;19.40;11.65;;;10.70;99.90;;;;;;5050475;28;20060;-84
2022/09/21 06:28:09;;;;;;;;;;;10.80;99.90;;;;;;5050206;28;20149;-83
2022/09/21 06:30:36;;;;;;;11.55;8.38;;;10.80;99.90;;;;;;5049752;28;19954;-85
2022/09/21 06:33:03;;;;;;;12.13;7.80;;;11.10;99.90;;;;;;5050561;28;20021;-83
2022/09/21 06:35:30;;;;;;;14.77;8.77;;;11.30;99.90;;;;;;5050318;28;20020;-86
2022/09/21 06:38:04;;;;;;;17.70;8.43;;;11.50;99.90;;;;;;5051554;28;20021;-84
2022/09/21 06:40:31;;;;;;;23.83;11.20;;;11.80;99.90;;;;;;5050673;28;20059;-82
2022/09/21 06:43:02;;;;;;;22.90;10.10;;;11.80;99.90;;;;;;5049972;28;20159;-84
2022/09/21 06:45:29;;;;;;;33.08;9.18;;;11.80;99.90;;;;;;5049977;28;20493;-83
2022/09/21 06:47:56;;;;;;;19.63;8.95;;;11.80;99.90;;;;;;5050620;28;20227;-83
2022/09/21 06:50:22;;;;;;;32.00;9.52;;;11.80;99.90;;;;;;5050612;28;20120;-83
2022/09/21 06:52:48;;;;;;;30.95;6.72;;;12.00;99.90;;;;;;5051977;28;20031;-84
2022/09/21 06:55:14;;;;;;;;;;;12.50;99.90;;;;;;5051956;28;20024;-85
2022/09/21 06:57:40;;;;;;;10.13;2.92;;;13.70;99.90;;;;;;5051581;28;20007;-83
2022/09/21 07:00:07;;;;;;;;;;;14.80;99.90;;;;;;5051319;28;20025;-83
2022/09/21 07:02:32;;;;;;;;;;;16.00;99.90;;;;;;5058837;28;19915;-83
2022/09/21 07:04:58;;;;;;;4.43;0.77;;;17.00;99.90;;;;;;5070417;28;20002;-85
2022/09/21 07:07:24;;;;;;;6.55;1.30;;;18.30;99.90;;;;;;5072416;28;20144;-84
2022/09/21 07:09:50;;;;;;;4.78;0.80;;;19.10;99.90;;;;;;5068805;28;20028;-86
2022/09/21 07:12:16;;;;;;;2.97;0.52;;;19.70;99.40;;;;;;5051652;28;20052;-86
2022/09/21 07:14:44;;;;;;;6.25;0.93;;;20.50;97.80;;;;;;5052624;28;20044;-86
2022/09/21 07:17:10;;;;;;;6.97;0.50;;;20.80;94.80;;;;;;5049954;28;20036;-83
2022/09/21 07:19:35;;;;;;;1.50;0.40;;;21.20;93.10;;;;;;5048701;28;20023;-84
2022/09/21 07:22:01;;;;;;;4.60;0.52;;;21.80;91.10;;;;;;5050384;28;20031;-83
2022/09/21 07:24:27;;;;;;;3.65;0.63;;;22.30;86.40;;;;;;5051657;28;20025;-85
2022/09/21 07:26:53;;;;;;;4.15;1.20;;;23.00;84.20;;;;;;5050030;28;20037;-86
2022/09/21 07:29:19;;;;;;;6.82;1.55;;;23.40;84.40;;;;;;5049965;28;20036;-84
2022/09/21 07:31:44;;;;;;;4.28;1.40;;;23.90;82.60;;;;;;5049309;28;20017;-84
2022/09/21 07:34:10;;;;;;;3.08;1.30;;;24.30;80.40;;;;;;5050423;28;20627;-84
2022/09/21 07:36:36;;;;;;;6.18;2.03;;;24.40;77.60;;;;;;5050295;28;20504;-83
2022/09/21 07:39:02;;;;;;;7.30;1.33;;;24.80;75.80;;;;;;5047849;28;20032;-85
2022/09/21 07:41:28;;;;;;;2.85;1.70;;;25.10;73.90;;;;;;5047198;28;20227;-84
2022/09/21 07:43:54;;;;;;;9.07;1.35;;;25.20;72.50;;;;;;5049478;28;20036;-83
2022/09/21 07:46:19;;;;;;;3.03;1.38;;;25.30;70.80;;;;;;5049481;28;20494;-85
2022/09/21 07:48:45;;;;;;;1.88;0.50;;;24.90;71.00;;;;;;5050130;28;20079;-84
2022/09/21 07:51:13;;;;;;;3.50;0.60;;;24.10;71.00;;;;;;5048858;28;20106;-87
2022/09/21 07:53:41;;;;;;;1.60;0.60;;;23.50;72.80;;;;;;5049078;28;20489;-88
2022/09/21 07:56:09;;;;;;;1.52;0.50;;;23.40;74.00;;;;;;5050962;28;20044;-85
2022/09/21 08:01:19;;;;;;;1.17;0.57;;;23.50;73.40;;;;;;5052022;28;20036;-86
2022/09/21 08:03:51;;;;;;;1.17;0.50;;;23.50;70.30;;;;;;5050449;28;20029;-86
2022/09/21 08:06:18;;;;;;;7.18;0.60;;;23.80;69.20;;;;;;5051598;28;20103;-88
2022/09/21 08:08:47;;;;;;;2.10;0.63;;;23.70;68.20;;;;;;5051567;28;20040;-85
2022/09/21 08:11:14;;;;;;;0.77;0.50;;;23.80;67.80;;;;;;5051159;28;20025;-85
2022/09/21 08:13:39;;;;;;;3.08;1.15;;;23.80;67.50;;;;;;5051903;28;20031;-86
2022/09/21 08:16:05;;;;;;;0.52;0.40;;;24.00;67.10;;;;;;5050859;28;20420;-88
2022/09/21 08:18:31;;;;;;;3.70;0.60;;;24.20;65.40;;;;;;5050968;28;20029;-86
2022/09/21 08:20:59;;;;;;;0.70;0.50;;;24.50;63.30;;;;;;5050763;28;20067;-87
2022/09/21 08:23:27;;;;;;;1.70;0.50;;;24.80;64.20;;;;;;5050989;28;20488;-87
2022/09/21 08:26:00;;;;;;;1.08;0.40;;;25.00;61.60;;;;;;5051149;28;20040;-87
2022/09/21 08:28:28;;;;;;;1.90;0.45;;;25.50;57.00;;;;;;5051899;28;20032;-87
2022/09/21 08:30:57;;;;;;;4.38;0.57;;;24.70;58.60;;;;;;5051260;28;20029;-86
2022/09/21 08:33:23;;;;;;;2.25;0.50;;;24.60;61.40;;;;;;5051865;28;20025;-86
2022/09/21 08:35:53;;;;;;;4.20;0.40;;;24.70;62.80;;;;;;5050900;28;20104;-87
2022/09/21 08:38:19;;;;;;;1.50;0.40;;;24.80;62.60;;;;;;5050328;28;20028;-87
2022/09/21 08:40:45;;;;;;;5.30;0.40;;;25.10;60.80;;;;;;5050657;28;20025;-87
2022/09/21 08:43:15;;;;;;;1.33;0.60;;;25.20;61.40;;;;;;5048279;28;20029;-87
2022/09/21 08:45:44;;;;;;;1.00;0.60;;;25.50;59.40;;;;;;5057032;28;20282;-85
2022/09/21 08:48:22;;;;;;;4.43;0.70;;;25.70;58.90;;;;;;5067777;28;20063;-85
2022/09/21 08:51:12;;;;;;;0.98;0.50;;;26.00;57.10;;;;;;5055308;28;20029;-86
2022/09/21 08:53:44;;;;;;;1.30;0.50;;;26.20;57.10;;;;;;5049886;28;20547;-84
2022/09/21 08:56:15;;;;;;;1.23;0.60;;;26.30;54.50;;;;;;5048788;28;20021;-83
2022/09/21 08:58:41;;;;;;;0.80;0.55;;;25.80;54.20;;;;;;5048815;28;20367;-83
2022/09/21 09:01:18;;;;;;;0.50;0.40;;;25.90;57.60;;;;;;5046667;28;20652;-84
2022/09/21 09:04:06;;;;;;;1.00;0.50;;;26.40;54.60;;;;;;5047444;28;20017;-84
2022/09/21 09:06:50;;;;;;;1.77;0.63;;;26.10;54.70;;;;;;5047800;28;20068;-87
2022/09/21 09:09:31;;;;;;;1.20;0.43;;;25.80;57.10;;;;;;5048993;28;20036;-86
2022/09/21 09:12:36;;;;;;;3.40;0.57;;;26.20;55.90;;;;;;5047301;28;20385;-86
2022/09/21 09:15:32;;;;;;;1.00;0.60;;;26.50;54.20;;;;;;5049997;28;20112;-87
2022/09/21 09:18:10;;;;;;;1.77;0.60;;;26.40;54.80;;;;;;5049612;28;20444;-87
2022/09/21 09:20:41;;;;;;;1.17;0.40;;;25.40;54.60;;;;;;5049597;28;20545;-86
2022/09/21 09:23:19;;;;;;;1.52;0.77;;;25.10;56.50;;;;;;5049880;28;20059;-86
2022/09/21 09:25:48;;;;;;;1.42;0.60;;;24.70;56.20;;;;;;5049679;28;20071;-86
2022/09/21 09:28:33;;;;;;;4.57;1.17;;;24.50;57.00;;;;;;5049652;28;20094;-86
2022/09/21 09:31:03;;;;;;;1.67;0.70;;;24.20;56.50;;;;;;5049312;28;20543;-86
2022/09/21 09:33:52;;;;;;;2.05;0.80;;;23.60;57.90;;;;;;5049060;28;20024;-85
2022/09/21 09:36:18;;;;;;;2.08;1.00;;;22.80;58.80;;;;;;5049559;28;20033;-86
2022/09/21 09:38:59;;;;;;;2.25;1.08;;;21.60;61.60;;;;;;5049071;28;20091;-85
2022/09/21 09:42:02;;;;;;;1.95;1.10;;;21.20;63.60;;;;;;5049422;28;20029;-87
2022/09/21 09:44:44;;;;;;;2.00;1.10;;;21.60;63.90;;;;;;5050381;28;20063;-88
2022/09/21 09:47:22;;;;;;;2.60;1.30;;;22.00;64.40;;;;;;5049772;28;20090;-88
2022/09/21 09:50:00;;;;;;;2.25;0.80;;;22.40;64.90;;;;;;5049269;28;20517;-86
2022/09/21 09:52:26;;;;;;;1.67;0.70;;;22.90;62.50;;;;;;5050360;28;20055;-86
2022/09/21 09:54:53;;;;;;;1.98;1.10;;;23.80;61.70;;;;;;5049129;28;20060;-86
2022/09/21 09:57:29;;;;;;;3.67;1.00;;;24.50;62.20;;;;;;5053262;28;20035;-85
2022/09/21 09:59:58;;;;;;;;;;;23.90;59.10;;;;;;5053058;28;20033;-84
2022/09/21 10:02:26;;;;;;;4.28;0.90;;;23.20;59.40;;;;;;5052078;28;19905;-86
2022/09/21 10:05:04;;;;;;;1.90;0.80;;;22.20;61.40;;;;;;5052433;28;20123;-84
2022/09/21 10:07:40;;;;;;;4.10;1.00;;;21.40;63.90;;;;;;5051889;28;20113;-85
2022/09/21 10:10:36;;;;;;;1.17;0.65;;;20.70;64.80;;;;;;5054189;28;20048;-84
2022/09/21 10:13:04;;;;;;;2.03;0.47;;;19.90;64.60;;;;;;5065121;28;20130;-85
2022/09/21 10:15:30;;;;;;;2.40;0.60;;;19.40;67.10;;;;;;5072082;28;20055;-85
2022/09/21 10:18:05;;;;;;;1.83;0.40;;;19.10;68.20;;;;;;5069251;28;20033;-85
2022/09/21 10:20:31;;;;;;;4.18;0.60;;;19.10;68.30;;;;;;5050249;28;20082;-85
2022/09/21 10:22:59;;;;;;;1.40;0.40;;;19.80;65.00;;;;;;5051430;28;20128;-84
2022/09/21 10:25:25;;;;;;;2.53;0.57;;;20.10;62.90;;;;;;5053934;28;20428;-85
2022/09/21 10:27:51;;;;;;;1.27;0.50;;;20.40;64.50;;;;;;5052469;28;20040;-85
2022/09/21 10:30:29;;;;;;;1.05;0.40;;;20.80;64.20;;;;;;5052013;28;20067;-84
2022/09/21 10:32:57;;;;;;;0.73;0.40;;;20.90;62.20;;;;;;5052285;28;20490;-85
2022/09/21 10:35:23;;;;;;;1.20;0.50;;;20.90;61.90;;;;;;5052779;28;20029;-86
2022/09/21 10:38:15;;;;;;;0.90;0.30;;;21.10;63.90;;;;;;5051851;28;20386;-86
2022/09/21 10:40:42;;;;;;;0.85;0.40;;;21.20;60.30;;;;;;5051466;28;20029;-83
2022/09/21 10:43:21;;;;;;;0.60;0.38;;;21.00;62.90;;;;;;5048981;28;20089;-85
2022/09/21 10:45:54;;;;;;;1.10;0.40;;;20.90;63.90;;;;;;5051569;28;20032;-85
2022/09/21 10:48:22;;;;;;;3.17;0.50;;;20.70;64.00;;;;;;5052835;28;20033;-85
2022/09/21 10:50:49;;;;;;;0.82;0.38;;;20.60;64.00;;;;;;5050933;28;20040;-85
2022/09/21 10:53:27;;;;;;;1.35;0.40;;;20.30;65.60;;;;;;5051081;28;20489;-85
2022/09/21 10:56:06;;;;;;;1.98;0.60;;;20.20;65.20;;;;;;5050294;28;20603;-85
2022/09/21 10:58:33;;;;;;;3.92;0.50;;;20.00;66.70;;;;;;5051192;28;20113;-85
2022/09/21 11:01:21;;;;;;;1.83;0.73;;;20.00;67.20;;;;;;5051466;28;20253;-84
2022/09/21 11:04:02;;;;;;;1.05;0.50;;;20.20;65.20;;;;;;5051160;28;20073;-85
2022/09/21 11:06:36;;;;;;;1.00;0.50;;;20.40;66.70;;;;;;5050860;28;20040;-85
2022/09/21 11:09:08;;;;;;;1.38;0.40;;;20.70;66.30;;;;;;5051010;28;20029;-85
2022/09/21 11:11:55;;;;;;;0.82;0.30;;;20.90;65.20;;;;;;5052331;28;20025;-85
2022/09/21 11:14:39;;;;;;;1.70;0.70;;;21.00;65.40;;;;;;5050824;28;20033;-85
2022/09/21 11:17:07;;;;;;;1.35;0.40;;;21.10;62.30;;;;;;5051509;28;20082;-85
2022/09/21 11:19:40;;;;;;;1.17;0.40;;;20.70;63.60;;;;;;5051104;28;20021;-85
2022/09/21 11:23:03;;;;;;;1.60;0.47;;;20.80;63.60;;;;;;5051678;28;20029;-85
2022/09/21 11:25:49;;;;;;;3.47;0.40;;;20.80;62.40;;;;;;4974269;28;20089;-85
2022/09/21 11:28:21;;;;;;;2.03;0.40;;;20.60;62.70;;;;;;4974605;28;20038;-84
2022/09/21 11:30:56;;;;;;;1.35;0.60;;;20.40;63.70;;;;;;5022536;28;20046;-84
2022/09/21 11:33:59;;;;;;;2.33;1.08;;;20.30;64.80;;;;;;5051035;28;20044;-86
2022/09/21 11:36:33;;;;;;;1.67;0.47;;;20.20;65.90;;;;;;5052609;28;20033;-85
2022/09/21 11:39:20;;;;;;;1.38;0.40;;;19.90;67.00;;;;;;5051872;28;20099;-86
2022/09/21 11:42:11;;;;;;;1.20;0.52;;;19.70;65.40;;;;;;5057212;28;20098;-85
2022/09/21 11:44:57;;;;;;;0.70;0.30;;;19.40;64.40;;;;;;5067811;28;20025;-84
2022/09/21 11:47:31;;;;;;;1.53;0.40;;;19.20;67.30;;;;;;5054569;28;20033;-84
2022/09/21 11:50:30;;;;;;;0.98;0.47;;;18.90;67.50;;;;;;5052949;28;20028;-85
2022/09/21 11:52:59;;;;;;;3.30;0.47;;;18.70;69.20;;;;;;5071152;28;20024;-86
2022/09/21 11:55:43;;;;;;;1.10;0.60;;;18.60;69.70;;;;;;5057801;28;20036;-86
2022/09/21 11:58:36;;;;;;;1.63;0.30;;;18.50;71.10;;;;;;5052041;28;20506;-85
2022/09/21 12:01:30;;;;;;;2.13;0.55;;;18.40;69.50;;;;;;5050722;28;20032;-85
2022/09/21 12:04:28;;;;;;;2.25;0.40;;;18.50;69.30;;;;;;5033801;28;20025;-84
2022/09/21 12:07:00;;;;;;;0.70;0.38;;;18.50;69.40;;;;;;5050623;28;20045;-86
2022/09/21 12:09:55;;;;;;;0.52;0.30;;;18.60;65.80;;;;;;5051863;28;20025;-86
2022/09/21 12:12:55;;;;;;;0.82;0.55;;;18.80;66.90;;;;;;5050237;28;20021;-85
2022/09/21 12:15:48;;;;;;;1.25;0.50;;;19.20;67.50;;;;;;5035119;28;20120;-85
2022/09/21 12:18:34;;;;;;;1.35;0.50;;;19.30;64.50;;;;;;5035656;28;20429;-86
2022/09/21 12:21:12;;;;;;;2.70;0.70;;;19.10;65.70;;;;;;5042849;28;20162;-87
2022/09/21 12:23:53;;;;;;;2.97;0.82;;;19.10;68.10;;;;;;5049776;28;20052;-84
2022/09/21 12:26:27;;;;;;;1.15;0.40;;;19.10;69.70;;;;;;5049378;28;20025;-85
2022/09/21 12:29:03;;;;;;;2.85;0.40;;;18.90;70.00;;;;;;5050281;28;20067;-85
2022/09/21 12:31:41;;;;;;;4.03;0.40;;;18.80;69.80;;;;;;5049719;28;20031;-85
2022/09/21 12:34:23;;;;;;;3.17;1.15;;;18.80;71.10;;;;;;5050960;28;20291;-85
2022/09/21 12:37:05;;;;;;;2.47;0.57;;;18.70;71.70;;;;;;5050152;28;20036;-85
2022/09/21 12:39:48;;;;;;;2.70;1.40;;;18.70;75.30;;;;;;5050096;28;20032;-85
2022/09/21 12:42:32;;;;;;;5.75;0.50;;;18.40;76.30;;;;;;5048670;28;20039;-86
2022/09/21 12:45:13;;;;;;;1.00;0.40;;;18.30;78.20;;;;;;5049801;28;20159;-85
2022/09/21 12:47:58;;;;;;;1.17;0.38;;;18.10;76.70;;;;;;5048912;28;20070;-85
2022/09/21 12:50:33;;;;;;;1.80;0.40;;;17.80;77.70;;;;;;5047340;28;20033;-85
2022/09/21 12:53:00;;;;;;;1.95;0.50;;;17.80;77.90;;;;;;5050154;28;20554;-86
2022/09/21 12:55:43;;;;;;;0.60;0.40;;;17.70;79.30;;;;;;5049581;28;20033;-85
2022/09/21 12:58:44;;;;;;;3.33;0.50;;;17.60;76.40;;;;;;5049702;28;20374;-86
2022/09/21 13:01:10;;;;;;;0.63;0.10;;;17.20;74.00;;;;;;5050181;28;20551;-85
2022/09/21 13:03:42;;;;;;;0.57;0.10;;;16.70;72.70;;;;;;5049478;28;20025;-85
2022/09/21 13:06:46;;;;;;;0.93;0.20;;;16.40;73.60;;;;;;5049456;28;20043;-86
2022/09/21 13:09:15;;;;;;;1.42;0.30;;;16.20;75.40;;;;;;5050223;28;20127;-85
2022/09/21 13:11:55;;;;;;;0.40;0.20;;;16.00;76.40;;;;;;5050244;28;20595;-85
2022/09/21 13:14:24;;;;;;;1.02;0.30;;;16.00;76.90;;;;;;5049361;28;20031;-85
2022/09/21 13:16:56;;;;;;;10.27;4.75;;;15.90;78.70;;;;;;5048630;28;20033;-86
2022/09/21 13:19:24;;;;;;;11.15;6.55;;;15.80;78.30;;;;;;5049870;28;20017;-86
2022/09/21 13:22:23;;;;;;;4.65;2.72;;;15.90;78.00;;;;;;5048910;28;20087;-85
2022/09/21 13:25:01;;;;;;;2.67;1.50;;;15.90;77.30;;;;;;5033314;28;20166;-86
2022/09/21 13:27:59;;;;;;;2.47;0.73;;;15.80;77.60;;;;;;5049947;28;20556;-85
2022/09/21 13:30:47;;;;;;;2.20;0.75;;;15.80;78.40;;;;;;5048372;28;20638;-85
2022/09/21 13:33:19;;;;;;;0.90;0.40;;;15.90;76.00;;;;;;5048379;28;20025;-85